Time;durP1;ratioP1;P1;durP2;ratioP2;P2;SDS_P1;SDS_P2;PMS_P1;PMS_P2;Temp;Humidity;BMP_temperature;BMP_pressure;BME280_temperature;BME280_humidity;BME280_pressure;Samples;Min_cycle;Max_cycle;Signal;HPM_P1;HPM_P2
2024/04/05 00:00:44;;;;;;;;;5.50;2.25;;;;;16.82;87.27;100728.50;5100088;27;45395;-79
2024/04/05 00:03:10;;;;;;;;;4.25;3.00;;;;;16.77;87.30;100717.13;5102188;27;47036;-79
2024/04/05 00:05:35;;;;;;;;;3.00;2.75;;;;;16.82;87.33;100715.00;5101410;27;45413;-79
2024/04/05 00:08:01;;;;;;;;;1.50;1.50;;;;;16.83;87.09;100720.31;5101648;27;45569;-79
2024/04/05 00:10:26;;;;;;;;;4.50;3.25;;;;;16.80;87.31;100720.50;5102379;27;45407;-79
2024/04/05 00:12:51;;;;;;;;;3.00;3.00;;;;;16.80;87.11;100722.34;5101724;27;45963;-79
2024/04/05 00:15:17;;;;;;;;;2.00;2.00;;;;;16.73;87.07;100702.97;5101899;27;56386;-79
2024/04/05 00:17:46;;;;;;;;;3.00;3.00;;;;;16.79;87.52;100716.09;5102038;27;45339;-79
2024/04/05 00:20:12;;;;;;;;;3.25;3.00;;;;;16.76;87.42;100707.31;5084066;27;45448;-79
2024/04/05 00:22:37;;;;;;;;;3.50;2.75;;;;;16.81;87.11;100710.59;5101279;27;46014;-79
2024/04/05 00:25:03;;;;;;;;;3.00;3.00;;;;;16.74;87.19;100693.94;5095808;27;45499;-79
2024/04/05 00:27:28;;;;;;;;;3.00;3.00;;;;;16.70;87.17;100683.41;5102261;27;45286;-79
2024/04/05 00:29:54;;;;;;;;;4.00;2.00;;;;;16.73;86.74;100689.47;5101896;27;45377;-79
2024/04/05 00:32:20;;;;;;;;;3.00;3.00;;;;;16.77;86.86;100684.78;5078038;27;46819;-79
2024/04/05 00:34:45;;;;;;;;;3.75;2.75;;;;;16.71;87.35;100672.53;5101824;27;45416;-79
2024/04/05 00:37:11;;;;;;;;;5.25;2.50;;;;;16.71;87.11;100671.69;5101652;27;45301;-79
2024/04/05 00:39:36;;;;;;;;;4.50;2.50;;;;;16.71;87.17;100677.94;5101676;27;45328;-79
2024/04/05 00:42:02;;;;;;;;;4.25;4.00;;;;;16.64;87.04;100661.25;5101268;27;62416;-79
2024/04/05 00:44:28;;;;;;;;;2.00;2.00;;;;;16.59;87.21;100652.56;5083630;27;45377;-79
2024/04/05 00:46:54;;;;;;;;;2.50;1.50;;;;;16.65;87.01;100646.81;5083827;27;45303;-79
2024/04/05 00:49:19;;;;;;;;;1.75;1.75;;;;;16.61;87.04;100644.41;5092152;27;45452;-79
2024/04/05 00:51:45;;;;;;;;;3.00;2.00;;;;;16.65;87.04;100645.94;5100833;27;45497;-79
2024/04/05 00:54:10;;;;;;;;;2.25;2.00;;;;;16.64;86.99;100653.16;5097985;27;45393;-79
2024/04/05 00:56:36;;;;;;;;;3.00;2.50;;;;;16.64;86.83;100657.69;5101811;27;45365;-79
2024/04/05 00:59:02;;;;;;;;;1.00;1.00;;;;;16.59;86.83;100646.28;5082346;27;45548;-79
2024/04/05 01:01:28;;;;;;;;;3.00;3.00;;;;;16.59;86.98;100649.88;5101447;27;45281;-79
2024/04/05 01:03:53;;;;;;;;;4.00;1.25;;;;;16.59;87.08;100646.28;5101201;27;45305;-79
2024/04/05 01:06:19;;;;;;;;;3.00;2.50;;;;;16.57;86.61;100640.13;5099349;27;45269;-79
2024/04/05 01:08:45;;;;;;;;;2.00;2.00;;;;;16.47;86.88;100610.16;5101605;27;45361;-79
2024/04/05 01:11:10;;;;;;;;;2.25;2.00;;;;;16.55;86.94;100618.66;5101430;27;46356;-79
2024/04/05 01:13:36;;;;;;;;;1.50;1.50;;;;;16.53;86.72;100623.28;5099883;27;59614;-79
2024/04/05 01:16:06;;;;;;;;;2.25;1.75;;;;;16.44;86.55;100603.16;5101557;27;45536;-79
2024/04/05 01:18:31;;;;;;;;;4.00;4.00;;;;;16.43;86.62;100601.41;5099975;27;45484;-79
2024/04/05 01:20:59;;;;;;;;;2.00;2.00;;;;;16.48;86.62;100607.38;5101180;27;46217;-79
2024/04/05 01:23:28;;;;;;;;;3.00;3.00;;;;;16.48;86.59;100617.31;5092102;27;45401;-79
2024/04/05 01:25:53;;;;;;;;;2.75;1.50;;;;;16.40;86.54;100612.34;5100461;27;45336;-79
2024/04/05 01:28:19;;;;;;;;;7.00;3.25;;;;;16.39;86.70;100609.75;5101045;27;45535;-79
2024/04/05 01:30:44;;;;;;;;;2.00;2.00;;;;;16.32;86.97;100609.25;5099949;27;48113;-79
2024/04/05 01:33:10;;;;;;;;;4.00;2.00;;;;;16.34;86.99;100618.13;5086915;27;45231;-79
2024/04/05 01:35:38;;;;;;;;;2.50;1.25;;;;;16.28;86.74;100605.88;5098900;27;45312;-79
2024/04/05 01:38:03;;;;;;;;;1.00;1.00;;;;;16.33;86.81;100618.22;5100987;27;45267;-79
2024/04/05 01:40:29;;;;;;;;;2.00;2.00;;;;;16.34;86.78;100619.94;5101039;27;46210;-79
2024/04/05 01:42:54;;;;;;;;;1.00;1.00;;;;;16.34;86.88;100628.00;5099966;27;45206;-79
2024/04/05 01:45:20;;;;;;;;;1.00;1.00;;;;;16.29;86.90;100621.06;5098854;27;45256;-79
2024/04/05 01:47:46;;;;;;;;;3.75;2.75;;;;;16.33;86.90;100618.22;5081179;27;45612;-79
2024/04/05 01:50:15;;;;;;;;;2.00;2.00;;;;;16.32;86.39;100621.84;5092880;27;46249;-79
2024/04/05 01:52:41;;;;;;;;;3.75;2.00;;;;;16.24;86.60;100608.84;5097013;27;45612;-79
2024/04/05 01:55:06;;;;;;;;;2.00;1.75;;;;;16.25;86.67;100606.03;5100962;27;45261;-79
2024/04/05 01:57:36;;;;;;;;;1.00;1.00;;;;;16.27;86.42;100600.56;5100736;27;45258;-79
2024/04/05 02:00:02;;;;;;;;;2.50;2.50;;;;;16.26;86.60;100591.63;5100206;27;45343;-79
2024/04/05 02:02:27;;;;;;;;;2.00;2.00;;;;;16.21;86.49;100574.00;5100327;27;45370;-79
2024/04/05 02:04:53;;;;;;;;;2.50;2.50;;;;;16.26;86.58;100575.47;5099209;27;55438;-79
2024/04/05 02:07:21;;;;;;;;;1.00;1.00;;;;;16.24;86.51;100572.00;5100643;27;45539;-79
2024/04/05 02:09:51;;;;;;;;;2.00;2.00;;;;;16.22;86.50;100559.56;5100492;27;45203;-79
2024/04/05 02:12:17;;;;;;;;;3.50;2.00;;;;;16.12;86.35;100553.84;5100477;27;45462;-79
2024/04/05 02:14:43;;;;;;;;;2.00;2.00;;;;;16.20;86.32;100573.13;5099931;27;45250;-79
2024/04/05 02:17:09;;;;;;;;;2.75;2.75;;;;;16.17;86.31;100564.38;5094710;27;45469;-79
2024/04/05 02:19:34;;;;;;;;;3.00;3.00;;;;;16.15;86.38;100555.50;5091531;27;45336;-79
2024/04/05 02:22:00;;;;;;;;;6.75;4.75;;;;;16.18;86.31;100563.41;5098876;27;45385;-79
2024/04/05 02:24:25;;;;;;;;;6.25;6.25;;;;;16.16;86.06;100559.94;5095286;27;45402;-79
2024/04/05 02:26:50;;;;;;;;;6.00;6.00;;;;;15.98;86.03;100529.59;5099891;27;45214;-79
2024/04/05 02:29:16;;;;;;;;;4.75;3.75;;;;;16.08;86.09;100552.31;5100376;27;45247;-79
2024/04/05 02:31:42;;;;;;;;;4.00;3.00;;;;;16.14;86.17;100556.47;5099014;27;45827;-79
2024/04/05 02:34:07;;;;;;;;;2.50;2.50;;;;;16.16;86.23;100554.56;5099148;27;45290;-79
2024/04/05 02:36:32;;;;;;;;;1.00;1.00;;;;;16.11;86.08;100544.06;5098480;27;45186;-79
2024/04/05 02:38:58;;;;;;;;;2.00;1.25;;;;;16.15;86.14;100551.00;5099116;27;48998;-80
2024/04/05 02:41:23;;;;;;;;;0.75;0.75;;;;;16.16;86.17;100550.03;5099926;27;45383;-80
2024/04/05 02:43:48;;;;;;;;;2.00;2.00;;;;;16.12;85.91;100540.38;5099633;27;56565;-80
2024/04/05 02:46:14;;;;;;;;;1.00;1.00;;;;;16.16;85.86;100536.56;5099191;27;45287;-80
2024/04/05 02:48:39;;;;;;;;;1.00;1.00;;;;;16.11;85.92;100528.75;5088732;27;47141;-80
2024/04/05 02:51:04;;;;;;;;;1.50;1.50;;;;;16.15;85.77;100529.44;5098663;27;52836;-80
2024/04/05 02:53:30;;;;;;;;;2.25;1.25;;;;;16.09;85.80;100522.59;5091907;27;45244;-80
2024/04/05 02:55:55;;;;;;;;;2.00;2.00;;;;;16.11;85.79;100520.69;5078357;27;45384;-80
2024/04/05 02:58:20;;;;;;;;;1.25;1.25;;;;;16.01;85.55;100489.03;5099712;27;45245;-80
2024/04/05 03:00:48;;;;;;;;;2.00;2.00;;;;;16.08;85.61;100506.53;5090856;27;45531;-80
2024/04/05 03:03:13;;;;;;;;;3.50;3.00;;;;;16.05;85.85;100491.41;5089691;27;45314;-80
2024/04/05 03:05:39;;;;;;;;;1.00;1.00;;;;;16.03;86.37;100479.03;5098497;27;45297;-80
2024/04/05 03:08:06;;;;;;;;;3.25;2.00;;;;;16.11;85.83;100498.28;5099836;27;45389;-80
2024/04/05 03:10:31;;;;;;;;;0.75;0.75;;;;;16.11;85.60;100504.53;5098599;27;45273;-80
2024/04/05 03:12:56;;;;;;;;;1.25;1.00;;;;;16.07;85.57;100497.59;5090414;27;45543;-80
2024/04/05 03:15:22;;;;;;;;;1.50;1.50;;;;;16.11;85.67;100503.66;5080780;27;45473;-80
2024/04/05 03:17:47;;;;;;;;;2.00;2.00;;;;;15.99;85.40;100466.69;5099242;27;45271;-80
2024/04/05 03:20:13;;;;;;;;;2.25;2.25;;;;;15.96;85.35;100464.19;5099199;27;51019;-80
2024/04/05 03:22:39;;;;;;;;;1.00;1.00;;;;;16.07;85.35;100467.09;5062792;27;45353;-80
2024/04/05 03:25:05;;;;;;;;;2.00;2.00;;;;;16.06;85.41;100465.38;5098075;27;46103;-80
2024/04/05 03:27:30;;;;;;;;;3.00;2.00;;;;;15.99;85.15;100445.16;5081281;27;48200;-80
2024/04/05 03:29:55;;;;;;;;;1.00;1.00;;;;;15.94;85.38;100429.28;5081278;27;47730;-80
2024/04/05 03:32:21;;;;;;;;;2.25;1.50;;;;;16.10;85.37;100445.38;5081363;27;45323;-80
2024/04/05 03:34:46;;;;;;;;;4.50;2.50;;;;;16.01;85.46;100429.78;5081302;27;45488;-80
2024/04/05 03:37:12;;;;;;;;;1.50;1.25;;;;;16.11;85.06;100447.13;5098935;27;45341;-80
2024/04/05 03:39:37;;;;;;;;;2.75;2.75;;;;;16.11;85.17;100447.13;5087437;27;45419;-80
2024/04/05 03:42:03;;;;;;;;;1.50;1.50;;;;;16.14;85.27;100452.34;5099601;27;45364;-80
2024/04/05 03:44:28;;;;;;;;;4.00;3.00;;;;;16.11;84.72;100439.91;5099330;27;45373;-80
2024/04/05 03:46:53;;;;;;;;;1.75;1.00;;;;;16.11;84.80;100439.06;5098695;27;61753;-80
2024/04/05 03:49:18;;;;;;;;;2.25;1.00;;;;;16.07;84.85;100424.03;5082577;27;61396;-80
2024/04/05 03:51:44;;;;;;;;;3.75;1.25;;;;;16.09;84.86;100427.50;5089463;27;52474;-80
2024/04/05 03:54:09;;;;;;;;;2.00;2.00;;;;;16.08;85.07;100425.75;5093857;27;45239;-80
2024/04/05 03:56:34;;;;;;;;;2.75;1.00;;;;;16.12;84.75;100411.16;5087601;27;45878;-80
2024/04/05 03:59:00;;;;;;;;;2.00;2.00;;;;;16.11;84.67;100414.81;5097996;27;45256;-80
2024/04/05 04:01:25;;;;;;;;;1.75;1.00;;;;;16.10;84.64;100415.75;5099202;27;45364;-80
2024/04/05 04:03:50;;;;;;;;;2.00;1.25;;;;;16.08;84.53;100405.09;5097784;27;49739;-80
2024/04/05 04:06:16;;;;;;;;;1.00;0.25;;;;;16.01;84.41;100392.09;5097524;27;57296;-80
2024/04/05 04:08:41;;;;;;;;;2.00;2.00;;;;;16.10;84.35;100399.59;5099410;27;59750;-80
2024/04/05 04:11:06;;;;;;;;;2.00;2.00;;;;;16.08;84.21;100388.06;5102572;27;45470;-80
2024/04/05 04:13:32;;;;;;;;;3.50;2.25;;;;;16.07;84.26;100387.22;5102600;27;45200;-80
2024/04/05 04:15:58;;;;;;;;;2.25;1.00;;;;;16.05;84.31;100388.25;5102337;27;45466;-80
2024/04/05 04:18:23;;;;;;;;;2.25;1.50;;;;;16.03;84.22;100382.97;5101340;27;45313;-80
2024/04/05 04:20:52;;;;;;;;;2.25;2.00;;;;;16.06;84.23;100392.69;5101442;27;45255;-80
2024/04/05 04:23:17;;;;;;;;;3.00;2.00;;;;;15.93;83.92;100355.72;5102192;27;45525;-80
2024/04/05 04:25:43;;;;;;;;;3.00;2.00;;;;;16.02;84.05;100375.88;5102354;27;45515;-80
2024/04/05 04:28:08;;;;;;;;;3.25;2.00;;;;;16.02;84.18;100380.34;5102125;27;45341;-80
2024/04/05 04:30:34;;;;;;;;;1.75;1.75;;;;;15.97;83.81;100369.00;5083871;27;55226;-80
2024/04/05 04:33:00;;;;;;;;;4.50;2.00;;;;;15.96;84.23;100361.91;5088193;27;45471;-80
2024/04/05 04:35:25;;;;;;;;;3.50;2.50;;;;;15.95;84.36;100358.34;5100851;27;45331;-80
2024/04/05 04:37:52;;;;;;;;;2.00;2.00;;;;;16.01;84.16;100362.50;5101958;27;45429;-80
2024/04/05 04:40:18;;;;;;;;;1.00;1.00;;;;;15.99;84.10;100357.19;5102346;27;45216;-80
2024/04/05 04:42:44;;;;;;;;;2.50;2.50;;;;;15.94;83.73;100332.41;5101854;27;45495;-80
2024/04/05 04:45:10;;;;;;;;;1.00;1.00;;;;;15.95;84.04;100331.41;5100303;27;47081;-80
2024/04/05 04:47:36;;;;;;;;;2.00;2.00;;;;;15.91;83.98;100324.50;5100675;27;45528;-80
2024/04/05 04:50:02;;;;;;;;;1.50;1.50;;;;;15.96;84.03;100337.69;5092692;27;45327;-80
2024/04/05 04:52:27;;;;;;;;;2.75;2.75;;;;;15.96;83.83;100330.47;5099885;27;45400;-80
2024/04/05 04:54:54;;;;;;;;;2.00;2.00;;;;;15.90;84.12;100325.44;5098613;27;47322;-80
2024/04/05 04:57:19;;;;;;;;;2.00;1.00;;;;;15.94;84.14;100318.94;5100641;27;45664;-80
2024/04/05 04:59:45;;;;;;;;;3.00;3.00;;;;;15.98;84.27;100317.78;5100377;27;50790;-80
2024/04/05 05:02:10;;;;;;;;;2.00;2.00;;;;;15.95;84.08;100327.88;5100856;27;57929;-80
2024/04/05 05:04:35;;;;;;;;;2.00;2.00;;;;;16.00;83.92;100328.44;5082227;27;46906;-80
2024/04/05 05:07:02;;;;;;;;;1.75;1.75;;;;;15.96;84.01;100321.53;5083570;27;45662;-80
2024/04/05 05:09:27;;;;;;;;;2.00;2.00;;;;;15.96;83.78;100322.41;5101753;27;45272;-80
2024/04/05 05:11:52;;;;;;;;;3.00;3.00;;;;;15.96;84.23;100324.22;5101174;27;48219;-80
2024/04/05 05:14:18;;;;;;;;;2.00;2.00;;;;;15.97;83.59;100320.56;5083973;27;56136;-80
2024/04/05 05:16:43;;;;;;;;;4.25;3.00;;;;;15.95;83.85;100319.78;5101455;27;45429;-80
2024/04/05 05:19:09;;;;;;;;;2.00;2.00;;;;;16.04;83.81;100330.00;5082085;27;45302;-80
2024/04/05 05:21:35;;;;;;;;;2.00;1.00;;;;;16.04;83.52;100349.72;5101627;27;45463;-80
2024/04/05 05:24:01;;;;;;;;;3.00;2.00;;;;;16.04;83.37;100338.94;5100874;27;46137;-80
2024/04/05 05:26:26;;;;;;;;;4.00;2.00;;;;;15.99;82.93;100329.41;5082976;27;45418;-80
2024/04/05 05:28:51;;;;;;;;;3.00;2.00;;;;;16.04;83.16;100346.16;5101295;27;45705;-80
2024/04/05 05:31:17;;;;;;;;;3.25;2.00;;;;;16.02;83.42;100357.03;5097877;27;45741;-80
2024/04/05 05:33:42;;;;;;;;;6.00;2.00;;;;;16.06;83.06;100352.31;5099377;27;65269;-80
2024/04/05 05:36:07;;;;;;;;;2.50;1.00;;;;;15.90;82.86;100334.41;5100860;27;54818;-81
2024/04/05 05:38:33;;;;;;;;;2.00;1.00;;;;;16.06;82.90;100355.00;5101273;27;45411;-80
2024/04/05 05:40:58;;;;;;;;;2.00;2.00;;;;;16.10;82.74;100359.22;5101174;27;45223;-80
2024/04/05 05:43:23;;;;;;;;;2.00;2.00;;;;;16.10;82.91;100364.59;5073993;28;46935;-80
2024/04/05 05:45:49;;;;;;;;;3.00;2.50;;;;;16.11;82.47;100371.75;5093758;27;53919;-80
2024/04/05 05:48:14;;;;;;;;;2.00;2.00;;;;;16.09;82.32;100370.97;5083351;27;45334;-80
2024/04/05 05:50:40;;;;;;;;;4.00;3.00;;;;;16.07;82.02;100373.75;5095934;27;53979;-80
2024/04/05 05:53:06;;;;;;;;;3.00;3.00;;;;;16.03;82.18;100376.72;5088303;27;46543;-80
2024/04/05 05:55:32;;;;;;;;;2.00;2.00;;;;;16.11;81.60;100383.38;5100481;27;45391;-80
2024/04/05 05:57:57;;;;;;;;;1.00;1.00;;;;;16.11;81.37;100386.06;5100799;27;45273;-80
2024/04/05 06:00:23;;;;;;;;;2.00;2.00;;;;;16.08;81.35;100374.59;5100572;27;49314;-80
2024/04/05 06:02:48;;;;;;;;;2.75;2.00;;;;;16.16;81.18;100377.69;5099542;27;48518;-80
2024/04/05 06:05:15;;;;;;;;;2.50;2.50;;;;;16.19;80.90;100382.91;5099456;27;45336;-80
2024/04/05 06:07:41;;;;;;;;;2.00;2.00;;;;;16.25;80.47;100387.88;5099343;27;45535;-80
2024/04/05 06:10:07;;;;;;;;;1.50;1.00;;;;;16.16;80.81;100369.63;5099887;27;45423;-80
2024/04/05 06:12:38;;;;;;;;;3.00;2.00;;;;;16.30;80.43;100382.22;5087540;27;45301;-80
2024/04/05 06:15:04;;;;;;;;;1.00;1.00;;;;;16.19;80.01;100364.06;5098625;27;45404;-80
2024/04/05 06:17:34;;;;;;;;;3.25;3.25;;;;;16.33;79.91;100395.50;5090725;27;45432;-80
2024/04/05 06:19:59;;;;;;;;;2.00;2.00;;;;;16.36;79.76;100399.84;5081152;27;45538;-80
2024/04/05 06:22:27;;;;;;;;;2.00;2.00;;;;;16.38;79.96;100408.69;5099474;27;47866;-80
2024/04/05 06:24:53;;;;;;;;;4.25;2.75;;;;;16.40;79.46;100414.84;5075928;27;45227;-80
2024/04/05 06:27:20;;;;;;;;;2.50;2.25;;;;;16.38;79.39;100414.94;5098442;27;45337;-81
2024/04/05 06:29:49;;;;;;;;;5.00;2.75;;;;;16.41;79.33;100419.28;5100197;27;45535;-81
2024/04/05 06:32:16;;;;;;;;;3.00;2.00;;;;;16.44;79.58;100414.56;5097620;27;45650;-81
2024/04/05 06:34:42;;;;;;;;;2.25;2.25;;;;;16.43;79.05;100414.66;5098223;27;45529;-81
2024/04/05 06:37:07;;;;;;;;;2.00;2.00;;;;;16.48;78.97;100426.00;5100124;27;45319;-80
2024/04/05 06:39:33;;;;;;;;;2.00;2.00;;;;;16.44;78.97;100409.19;5097010;27;45969;-81
2024/04/05 06:41:58;;;;;;;;;2.75;2.75;;;;;16.34;79.01;100397.25;5100472;27;46164;-81
2024/04/05 06:44:26;;;;;;;;;2.25;2.00;;;;;16.42;78.64;100404.84;5099701;27;45423;-81
2024/04/05 06:46:51;;;;;;;;;1.50;1.50;;;;;16.49;78.70;100425.06;5097456;27;45502;-81
2024/04/05 06:49:17;;;;;;;;;1.00;1.00;;;;;16.40;78.48;100412.16;5099755;27;45592;-82
2024/04/05 06:51:43;;;;;;;;;3.75;2.00;;;;;16.55;78.24;100434.59;5100250;27;45412;-81
2024/04/05 06:54:08;;;;;;;;;0.75;0.75;;;;;16.53;78.70;100440.06;5081554;27;45313;-81
2024/04/05 06:56:33;;;;;;;;;5.00;3.00;;;;;16.59;78.20;100444.19;5098226;27;45360;-82
2024/04/05 06:58:58;;;;;;;;;2.75;2.00;;;;;16.60;77.85;100433.31;5099845;27;45467;-81
2024/04/05 07:01:24;;;;;;;;;2.00;2.00;;;;;16.60;78.14;100424.38;5099795;27;48023;-81
2024/04/05 07:03:49;;;;;;;;;2.00;1.50;;;;;16.62;77.95;100415.25;5097222;27;54988;-81
2024/04/05 07:06:15;;;;;;;;;4.25;3.25;;;;;16.64;77.85;100421.41;5090760;27;45401;-79
2024/04/05 07:08:40;;;;;;;;;3.00;3.00;;;;;16.61;77.84;100401.88;5098452;27;45318;-80
2024/04/05 07:11:08;;;;;;;;;2.00;2.00;;;;;16.64;77.68;100396.31;5095619;27;52558;-79
2024/04/05 07:13:33;;;;;;;;;2.75;2.00;;;;;16.63;77.38;100373.84;5098912;27;45248;-80
2024/04/05 07:16:00;;;;;;;;;3.00;3.00;;;;;16.68;77.88;100457.97;5099152;27;45313;-80
2024/04/05 07:18:26;;;;;;;;;3.00;3.00;;;;;16.66;77.86;100489.53;5098934;27;45380;-80
2024/04/05 07:20:51;;;;;;;;;5.75;2.00;;;;;16.74;77.81;100507.06;5098784;27;45523;-80
2024/04/05 07:23:17;;;;;;;;;2.00;2.00;;;;;16.71;77.79;100501.88;5095373;27;45392;-82
2024/04/05 07:25:42;;;;;;;;;4.00;3.00;;;;;16.76;77.53;100526.72;5092727;27;45586;-80
2024/04/05 07:28:08;;;;;;;;;3.00;3.00;;;;;16.78;77.54;100539.13;5091747;27;45502;-80
2024/04/05 07:30:36;;;;;;;;;2.50;2.25;;;;;16.78;77.08;100549.06;5095434;27;51139;-80
2024/04/05 07:33:02;;;;;;;;;3.00;2.00;;;;;16.82;77.44;100564.06;5099009;27;45446;-81
2024/04/05 07:35:29;;;;;;;;;2.00;2.00;;;;;16.83;77.02;100571.19;5083450;27;45289;-80
2024/04/05 07:37:55;;;;;;;;;2.25;2.25;;;;;16.84;77.28;100552.28;5092688;27;45265;-79
2024/04/05 07:40:22;;;;;;;;;1.00;1.00;;;;;16.86;77.00;100557.56;5081064;27;46008;-79
2024/04/05 07:42:52;;;;;;;;;3.00;1.00;;;;;16.82;77.86;100543.38;5099728;27;45234;-80
2024/04/05 07:45:19;;;;;;;;;2.25;2.25;;;;;16.86;77.98;100554.88;5102932;27;45253;-80
2024/04/05 07:47:48;;;;;;;;;2.00;2.00;;;;;16.79;78.52;100538.19;5083850;27;45413;-80
2024/04/05 07:50:17;;;;;;;;;1.75;1.75;;;;;16.86;78.68;100530.59;5103029;27;45747;-79
2024/04/05 07:52:42;;;;;;;;;3.00;2.00;;;;;16.89;79.08;100532.22;5094435;27;45294;-80
2024/04/05 07:55:09;;;;;;;;;1.25;1.00;;;;;16.82;79.67;100516.44;5102682;27;45236;-79
2024/04/05 07:57:39;;;;;;;;;3.25;3.25;;;;;16.88;80.06;100512.50;5097024;27;45745;-78
2024/04/05 08:00:08;;;;;;;;;1.75;1.75;;;;;16.88;80.89;100493.63;5102452;27;45327;-79
2024/04/05 08:02:35;;;;;;;;;4.00;2.25;;;;;16.86;80.75;100490.19;5088921;27;45289;-78
2024/04/05 08:05:00;;;;;;;;;2.00;2.00;;;;;16.84;81.49;100484.88;5101460;27;45331;-78
2024/04/05 08:07:26;;;;;;;;;2.00;2.00;;;;;16.82;81.16;100481.38;5101861;27;45306;-79
2024/04/05 08:09:52;;;;;;;;;3.00;3.00;;;;;16.84;82.29;100498.34;5101326;27;46095;-79
2024/04/05 08:12:18;;;;;;;;;2.25;2.25;;;;;16.87;81.42;100507.19;5102029;27;45430;-79
2024/04/05 08:14:43;;;;;;;;;2.00;2.00;;;;;16.80;82.15;100526.41;5102601;27;45328;-79
2024/04/05 08:17:08;;;;;;;;;2.00;2.00;;;;;16.68;82.28;100530.72;5101299;27;45281;-79
2024/04/05 08:19:34;;;;;;;;;3.00;3.00;;;;;16.87;82.09;100588.09;5101901;27;55811;-79
2024/04/05 08:21:59;;;;;;;;;2.00;2.00;;;;;16.77;82.32;100575.16;5101892;27;45432;-79
2024/04/05 08:24:24;;;;;;;;;3.75;2.75;;;;;16.84;82.93;100584.63;5100309;27;49924;-79
2024/04/05 08:26:50;;;;;;;;;3.25;2.50;;;;;16.85;82.41;100588.16;5101449;27;46843;-78
2024/04/05 08:29:15;;;;;;;;;5.00;3.00;;;;;16.87;82.56;100593.47;5102080;27;45472;-80
2024/04/05 08:31:40;;;;;;;;;5.50;3.50;;;;;16.85;82.62;100591.72;5097613;27;45374;-79
2024/04/05 08:34:05;;;;;;;;;4.50;4.50;;;;;16.88;83.11;100587.13;5101289;27;54792;-80
2024/04/05 08:36:31;;;;;;;;;3.75;3.25;;;;;16.88;82.94;100587.13;5100982;27;61627;-79
2024/04/05 08:38:56;;;;;;;;;2.75;2.75;;;;;16.82;83.09;100589.22;5112553;27;63130;-78
2024/04/05 08:41:29;;;;;;;;;6.00;4.25;;;;;16.85;83.53;100593.56;5101021;27;48751;-78
2024/04/05 08:43:58;;;;;;;;;5.00;3.00;;;;;16.85;83.58;100598.94;5096078;27;45296;-78
2024/04/05 08:46:24;;;;;;;;;2.75;2.75;;;;;16.84;83.61;100587.31;5095207;27;45327;-78
2024/04/05 08:48:51;;;;;;;;;1.25;1.25;;;;;16.82;83.44;100594.59;5083899;27;45473;-78
2024/04/05 08:51:16;;;;;;;;;2.25;2.25;;;;;16.82;83.32;100574.84;5086242;27;45372;-78
2024/04/05 08:53:41;;;;;;;;;3.00;3.00;;;;;16.78;83.67;100584.94;5071692;27;63539;-78
2024/04/05 08:56:07;;;;;;;;;4.50;3.00;;;;;16.70;83.71;100564.81;5083106;27;45430;-78
2024/04/05 08:58:33;;;;;;;;;3.75;3.00;;;;;16.78;83.73;100584.94;5101508;27;45420;-78
2024/04/05 09:01:00;;;;;;;;;1.50;1.50;;;;;16.76;83.61;100578.78;5082695;27;45338;-78
2024/04/05 09:03:26;;;;;;;;;3.25;3.00;;;;;16.80;83.88;100580.31;5101487;27;45255;-77
2024/04/05 09:05:52;;;;;;;;;2.75;2.00;;;;;16.87;83.89;100585.38;5099737;27;45417;-78
2024/04/05 09:08:20;;;;;;;;;2.75;2.75;;;;;16.84;83.76;100590.00;5101330;27;45283;-78
2024/04/05 09:10:51;;;;;;;;;3.50;3.50;;;;;16.83;83.55;100584.69;5100039;27;45296;-78
2024/04/05 09:13:17;;;;;;;;;2.00;2.00;;;;;16.88;83.47;100593.38;5101546;27;45266;-78
2024/04/05 09:15:49;;;;;;;;;3.25;3.25;;;;;16.88;84.06;100589.81;5101389;27;45406;-80
2024/04/05 09:18:23;;;;;;;;;3.00;2.50;;;;;16.81;83.98;100571.28;5082385;27;48083;-78
2024/04/05 09:20:48;;;;;;;;;3.50;3.00;;;;;16.94;83.83;100595.72;5100947;27;45507;-80
2024/04/05 09:23:13;;;;;;;;;5.00;3.00;;;;;16.99;83.83;100608.88;5101459;27;45329;-82
2024/04/05 09:25:39;;;;;;;;;2.75;2.00;;;;;16.99;83.78;100609.78;5098782;27;58522;-79
2024/04/05 09:28:13;;;;;;;;;3.00;1.50;;;;;17.01;83.86;100613.25;5100499;27;45465;-80
2024/04/05 09:30:38;;;;;;;;;3.50;3.50;;;;;16.96;83.61;100595.63;5072909;27;45354;-80
2024/04/05 09:33:04;;;;;;;;;2.00;2.00;;;;;17.05;83.49;100600.44;5100352;27;45309;-79
2024/04/05 09:35:30;;;;;;;;;3.50;3.50;;;;;17.07;83.29;100603.88;5101014;27;45541;-79
2024/04/05 09:37:56;;;;;;;;;4.25;2.50;;;;;17.13;83.18;100619.69;5100251;27;46497;-79
2024/04/05 09:40:25;;;;;;;;;3.75;3.75;;;;;17.10;83.47;100632.50;5100842;27;45273;-79
2024/04/05 09:42:52;;;;;;;;;2.00;2.00;;;;;17.17;83.56;100652.75;5085433;27;45268;-79
2024/04/05 09:45:23;;;;;;;;;4.25;3.00;;;;;17.19;83.16;100646.31;5099858;27;45440;-79
2024/04/05 09:47:49;;;;;;;;;2.00;2.00;;;;;17.19;83.36;100645.41;5100028;27;46091;-79
2024/04/05 09:50:17;;;;;;;;;5.25;3.00;;;;;17.12;83.32;100623.34;5100724;27;45292;-79
2024/04/05 09:52:44;;;;;;;;;4.00;4.00;;;;;17.20;82.93;100612.97;5100537;27;45459;-79
2024/04/05 09:55:13;;;;;;;;;2.00;2.00;;;;;17.27;83.43;100623.38;5100447;27;45552;-80
2024/04/05 09:57:38;;;;;;;;;4.00;3.00;;;;;17.29;83.38;100640.31;5093483;27;46139;-79
2024/04/05 10:00:14;;;;;;;;;8.00;4.25;;;;;17.32;83.31;100646.38;5098795;27;45746;-79
2024/04/05 10:03:06;;;;;;;;;3.00;3.00;;;;;17.36;83.45;100652.50;5098016;27;45372;-79
2024/04/05 10:05:33;;;;;;;;;2.25;2.25;;;;;17.39;83.39;100663.94;5095223;27;45403;-79
2024/04/05 10:08:16;;;;;;;;;3.00;3.00;;;;;17.44;83.71;100649.28;5095151;27;47275;-79
2024/04/05 10:10:42;;;;;;;;;3.00;3.00;;;;;17.44;83.80;100652.00;5100584;27;45217;-79
2024/04/05 10:13:15;;;;;;;;;3.00;3.00;;;;;17.53;84.14;100646.03;5097575;27;45391;-79
2024/04/05 10:15:56;;;;;;;;;1.75;1.75;;;;;17.56;83.15;100640.44;5096837;27;45328;-79
2024/04/05 10:18:23;;;;;;;;;1.50;1.50;;;;;17.58;83.46;100641.22;5093708;27;46470;-79
2024/04/05 10:21:01;;;;;;;;;2.00;2.00;;;;;17.58;83.40;100641.22;5096208;27;45321;-79
2024/04/05 10:23:27;;;;;;;;;3.00;2.00;;;;;17.59;83.55;100635.72;5077225;27;45671;-81
2024/04/05 10:25:52;;;;;;;;;2.00;2.00;;;;;17.69;83.01;100654.00;5098698;27;45352;-81
2024/04/05 10:28:19;;;;;;;;;1.00;0.25;;;;;17.77;83.00;100657.97;5081998;27;48220;-81
2024/04/05 10:30:45;;;;;;;;;3.00;1.50;;;;;17.70;83.33;100635.00;5100340;27;45644;-80
2024/04/05 10:33:17;;;;;;;;;2.25;1.75;;;;;17.73;83.06;100648.31;5100302;27;45207;-80
2024/04/05 10:35:43;;;;;;;;;0.50;0.50;;;;;17.82;82.73;100641.47;5100588;27;45219;-82
2024/04/05 10:38:09;;;;;;;;;2.25;0.50;;;;;17.89;82.86;100655.47;5093119;27;46739;-83
2024/04/05 10:40:34;;;;;;;;;1.25;1.25;;;;;17.84;82.74;100635.97;5100280;27;45299;-83
2024/04/05 10:43:12;;;;;;;;;2.25;2.25;;;;;17.96;82.77;100646.03;5100574;27;45237;-81
2024/04/05 10:45:41;;;;;;;;;3.00;1.50;;;;;17.94;82.88;100629.03;5100289;27;45330;-81
2024/04/05 10:48:06;;;;;;;;;2.25;2.25;;;;;17.97;82.70;100636.94;5099532;27;46138;-83
2024/04/05 10:50:37;;;;;;;;;2.50;1.50;;;;;18.04;82.25;100643.69;5099223;27;45240;-81
2024/04/05 10:53:03;;;;;;;;;2.50;2.50;;;;;18.11;82.01;100644.16;5094850;27;45281;-81
2024/04/05 10:55:29;;;;;;;;;1.00;1.00;;;;;18.13;81.99;100644.91;5091528;27;45360;-81
2024/04/05 10:57:56;;;;;;;;;2.25;2.00;;;;;18.15;82.04;100643.84;5098552;27;46185;-81
2024/04/05 11:00:22;;;;;;;;;1.00;1.00;;;;;18.23;81.71;100648.75;5098801;27;45608;-81
2024/04/05 11:02:47;;;;;;;;;1.00;1.00;;;;;18.30;81.59;100655.47;5098685;27;45281;-81
2024/04/05 11:05:14;;;;;;;;;0.25;0.25;;;;;18.32;81.41;100667.03;5098136;27;45487;-81
2024/04/05 11:07:41;;;;;;;;;0.75;0.75;;;;;18.39;80.71;100672.91;5080631;27;47232;-81
2024/04/05 11:10:14;;;;;;;;;1.00;1.00;;;;;18.35;80.81;100663.28;5081146;27;45397;-81
2024/04/05 11:12:39;;;;;;;;;2.00;0.75;;;;;18.40;80.63;100666.53;5100217;27;45341;-81
2024/04/05 11:15:05;;;;;;;;;2.25;1.00;;;;;18.49;80.29;100673.16;5097843;27;45550;-81
2024/04/05 11:17:31;;;;;;;;;1.75;1.75;;;;;18.44;80.07;100676.19;5101395;27;45370;-81
2024/04/05 11:20:11;;;;;;;;;1.75;1.75;;;;;18.55;80.37;100698.94;5094352;27;45311;-81